createdAt,value
2019-03-26T00:00:53.524Z,16.10
2019-03-26T00:03:23.656Z,16.00
2019-03-26T00:05:54.096Z,16.00
2019-03-26T00:08:24.566Z,15.90
2019-03-26T00:10:54.697Z,15.90
2019-03-26T00:13:24.761Z,15.80
2019-03-26T00:15:54.960Z,15.70
2019-03-26T00:18:25.422Z,15.60
2019-03-26T00:20:55.540Z,15.40
2019-03-26T00:23:25.592Z,15.30
2019-03-26T00:25:55.929Z,15.20
2019-03-26T00:28:25.927Z,15.20
2019-03-26T00:30:56.494Z,15.00
2019-03-26T00:33:36.307Z,15.00
2019-03-26T00:35:58.378Z,14.90
2019-03-26T00:38:28.439Z,14.70
2019-03-26T00:40:58.606Z,14.50
2019-03-26T00:43:28.664Z,14.50
2019-03-26T00:45:58.788Z,14.30
2019-03-26T00:48:28.776Z,14.20
2019-03-26T00:50:59.201Z,14.10
2019-03-26T00:53:29.254Z,14.00
2019-03-26T00:55:59.320Z,14.00
2019-03-26T00:58:29.791Z,14.00
2019-03-26T01:00:59.857Z,14.10
2019-03-26T01:03:29.913Z,14.10
2019-03-26T01:06:00.107Z,14.10
2019-03-26T01:08:30.156Z,14.10
2019-03-26T01:11:00.162Z,14.20
2019-03-26T01:13:30.368Z,14.30
2019-03-26T01:16:00.486Z,14.40
2019-03-26T01:18:30.622Z,14.20
2019-03-26T01:21:00.951Z,14.10
2019-03-26T01:23:31.090Z,14.00
2019-03-26T01:26:01.504Z,14.00
2019-03-26T01:28:31.834Z,13.90
2019-03-26T01:31:01.889Z,13.90
2019-03-26T01:33:32.343Z,14.00
2019-03-26T01:36:02.707Z,13.90
2019-03-26T01:38:33.036Z,13.90
2019-03-26T01:41:03.166Z,13.90
2019-03-26T01:43:33.143Z,13.80
2019-03-26T01:46:03.279Z,13.80
2019-03-26T01:48:33.470Z,13.80
2019-03-26T01:51:03.590Z,13.80
2019-03-26T01:53:33.652Z,13.80
2019-03-26T01:56:03.791Z,13.70
2019-03-26T01:58:33.907Z,13.60
2019-03-26T02:01:04.428Z,13.70
2019-03-26T02:03:34.401Z,13.70
2019-03-26T02:06:04.540Z,13.70
2019-03-26T02:08:34.664Z,13.50
2019-03-26T02:11:04.735Z,13.60
2019-03-26T02:13:34.781Z,13.50
2019-03-26T02:16:04.853Z,13.50
2019-03-26T02:18:34.905Z,13.60
2019-03-26T02:21:05.237Z,13.60
2019-03-26T02:23:35.667Z,13.60
2019-03-26T02:26:05.721Z,13.60
2019-03-26T02:28:35.790Z,13.60
2019-03-26T02:31:05.912Z,13.60
2019-03-26T02:33:37.216Z,13.80
2019-03-26T02:36:07.339Z,13.50
2019-03-26T02:38:38.474Z,13.50
2019-03-26T02:41:08.983Z,13.40
2019-03-26T02:43:39.078Z,13.40
2019-03-26T02:46:09.279Z,13.40
2019-03-26T02:48:39.355Z,13.40
2019-03-26T02:51:10.792Z,13.40
2019-03-26T02:53:40.853Z,13.40
2019-03-26T02:56:10.973Z,13.40
2019-03-26T02:58:41.538Z,13.30
2019-03-26T03:01:11.655Z,13.20
2019-03-26T03:03:41.751Z,13.10
2019-03-26T03:06:12.642Z,13.20
2019-03-26T03:08:42.688Z,13.10
2019-03-26T03:11:12.830Z,13.10
2019-03-26T03:13:44.236Z,13.10
2019-03-26T03:16:14.299Z,13.20
2019-03-26T03:18:44.352Z,13.20
2019-03-26T03:21:14.468Z,13.20
2019-03-26T03:23:44.820Z,13.20
2019-03-26T03:26:15.924Z,13.20
2019-03-26T03:28:46.392Z,13.20
2019-03-26T03:31:16.381Z,13.20
2019-03-26T03:33:46.647Z,13.30
2019-03-26T03:36:17.047Z,13.30
2019-03-26T03:38:47.179Z,13.30
2019-03-26T03:41:17.246Z,13.20
2019-03-26T03:43:47.608Z,13.20
2019-03-26T03:46:17.732Z,13.10
2019-03-26T03:48:48.577Z,13.20
2019-03-26T03:51:21.715Z,13.20
2019-03-26T03:53:51.833Z,13.20
2019-03-26T03:56:24.696Z,13.20
2019-03-26T03:58:56.919Z,13.20
2019-03-26T04:01:27.002Z,13.20
2019-03-26T04:03:57.036Z,13.20
2019-03-26T04:06:27.048Z,13.20
2019-03-26T04:08:58.633Z,13.20
2019-03-26T04:11:29.056Z,13.20
2019-03-26T04:13:59.121Z,13.20
2019-03-26T04:16:29.201Z,13.20
2019-03-26T04:18:59.529Z,13.20
2019-03-26T04:21:29.626Z,13.20
2019-03-26T04:23:59.965Z,13.20
2019-03-26T04:26:30.095Z,13.30
2019-03-26T04:29:00.228Z,13.30
2019-03-26T04:31:30.534Z,13.20
2019-03-26T04:34:00.662Z,13.20
2019-03-26T04:36:30.792Z,13.30
2019-03-26T04:39:01.203Z,13.20
2019-03-26T04:41:32.944Z,13.20
2019-03-26T04:44:03.085Z,13.20
2019-03-26T04:46:33.136Z,13.20
2019-03-26T04:49:03.253Z,13.20
2019-03-26T04:51:33.244Z,13.10
2019-03-26T04:54:03.764Z,13.20
2019-03-26T04:56:34.047Z,13.20
2019-03-26T04:59:04.169Z,13.20
2019-03-26T05:01:34.163Z,13.20
2019-03-26T05:04:04.290Z,13.30
2019-03-26T05:06:38.258Z,13.30
2019-03-26T05:09:06.322Z,13.30
2019-03-26T05:14:42.557Z,13.40
2019-03-26T05:17:12.797Z,13.40
2019-03-26T05:19:42.917Z,13.40
2019-03-26T05:22:23.691Z,13.40
2019-03-26T05:24:46.164Z,13.50
2019-03-26T05:27:16.143Z,13.50
2019-03-26T05:29:46.205Z,13.40
2019-03-26T05:32:16.257Z,13.50
2019-03-26T05:34:46.692Z,13.50
2019-03-26T05:37:17.163Z,13.50
2019-03-26T05:39:47.223Z,13.50
2019-03-26T05:42:18.421Z,13.60
2019-03-26T05:44:48.481Z,13.60
2019-03-26T05:47:18.886Z,13.60
2019-03-26T05:49:49.041Z,13.60
2019-03-26T05:52:19.173Z,13.60
2019-03-26T05:54:49.162Z,13.60
2019-03-26T05:57:19.161Z,13.60
2019-03-26T05:59:49.287Z,13.60
2019-03-26T06:02:19.352Z,13.60
2019-03-26T06:04:49.409Z,13.60
2019-03-26T06:07:19.820Z,13.60
2019-03-26T06:09:49.953Z,13.60
2019-03-26T06:12:20.013Z,13.60
2019-03-26T06:14:51.131Z,13.60
2019-03-26T06:17:21.208Z,13.70
2019-03-26T06:19:51.257Z,13.70
2019-03-26T06:22:21.316Z,13.70
2019-03-26T06:24:51.508Z,13.70
2019-03-26T06:27:21.678Z,13.40
2019-03-26T06:29:51.805Z,12.80
2019-03-26T06:32:21.861Z,12.60
2019-03-26T06:34:51.873Z,12.60
2019-03-26T06:37:22.006Z,12.50
2019-03-26T06:39:52.213Z,12.50
2019-03-26T06:42:22.265Z,12.60
2019-03-26T06:44:52.342Z,12.50
2019-03-26T06:47:22.757Z,12.50
2019-03-26T06:49:52.889Z,12.60
2019-03-26T06:52:23.018Z,12.60
2019-03-26T06:54:53.076Z,12.70
2019-03-26T06:57:34.902Z,12.80
2019-03-26T06:59:55.109Z,13.20
2019-03-26T07:02:25.529Z,13.10
2019-03-26T07:04:55.682Z,13.00
2019-03-26T07:07:31.382Z,12.90
2019-03-26T07:09:57.840Z,12.90
2019-03-26T07:12:27.831Z,12.80
2019-03-26T07:14:57.880Z,12.90
2019-03-26T07:17:27.945Z,13.10
2019-03-26T07:19:58.072Z,13.30
2019-03-26T07:22:28.274Z,13.80
2019-03-26T07:24:58.406Z,13.90
2019-03-26T07:27:28.545Z,13.90
2019-03-26T07:29:58.666Z,14.50
2019-03-26T07:32:28.746Z,15.60
2019-03-26T07:34:59.081Z,16.80
2019-03-26T07:37:29.089Z,18.30
2019-03-26T07:39:59.147Z,18.40
2019-03-26T07:42:29.170Z,18.60
2019-03-26T07:44:59.295Z,18.40
2019-03-26T07:47:29.370Z,18.60
2019-03-26T07:49:59.502Z,18.70
2019-03-26T07:52:29.572Z,19.20
2019-03-26T07:54:59.973Z,19.80
2019-03-26T07:57:30.102Z,20.50
2019-03-26T08:00:00.379Z,20.80
2019-03-26T08:02:30.496Z,21.10
2019-03-26T08:05:00.580Z,21.80
2019-03-26T08:07:30.764Z,22.40
2019-03-26T08:10:01.313Z,22.90
2019-03-26T08:12:32.942Z,23.80
2019-03-26T08:15:04.372Z,23.80
2019-03-26T08:17:34.555Z,24.80
2019-03-26T08:20:07.274Z,25.40
2019-03-26T08:22:37.440Z,25.30
2019-03-26T08:25:07.929Z,24.80
2019-03-26T08:27:38.401Z,25.20
2019-03-26T08:30:08.820Z,24.80
2019-03-26T08:32:38.897Z,25.40
2019-03-26T08:35:09.890Z,26.40
2019-03-26T08:37:40.304Z,27.00
2019-03-26T08:40:10.632Z,27.80
2019-03-26T08:42:41.069Z,27.30
2019-03-26T08:45:11.474Z,27.90
2019-03-26T08:47:41.605Z,27.60
2019-03-26T08:50:12.237Z,27.90
2019-03-26T08:52:42.655Z,27.10
2019-03-26T08:55:13.089Z,27.40
2019-03-26T08:57:43.218Z,27.70
2019-03-26T09:00:13.752Z,27.90
2019-03-26T09:02:44.276Z,29.10
2019-03-26T09:05:14.998Z,29.50
2019-03-26T09:07:45.124Z,30.30
2019-03-26T09:10:15.670Z,30.10
2019-03-26T09:12:45.661Z,31.40
2019-03-26T09:15:15.804Z,31.60
2019-03-26T09:17:46.209Z,31.40
2019-03-26T09:20:18.169Z,32.10
2019-03-26T09:22:49.698Z,31.60
2019-03-26T09:25:20.154Z,31.60
2019-03-26T09:27:52.428Z,31.70
2019-03-26T09:30:22.309Z,31.20
2019-03-26T09:32:53.795Z,30.90
2019-03-26T09:35:24.018Z,30.00
2019-03-26T09:37:54.198Z,29.30
2019-03-26T09:40:24.261Z,29.30
2019-03-26T09:42:54.431Z,29.10
2019-03-26T09:45:24.514Z,29.20
2019-03-26T09:47:55.030Z,29.10
2019-03-26T09:50:33.771Z,29.20
2019-03-26T09:53:05.309Z,29.00
2019-03-26T09:55:35.433Z,29.60
2019-03-26T09:58:05.485Z,29.90
2019-03-26T10:00:35.718Z,29.80
2019-03-26T10:03:06.024Z,29.60
2019-03-26T10:05:36.220Z,30.30
2019-03-26T10:08:06.421Z,30.10
2019-03-26T10:10:36.629Z,30.70
2019-03-26T10:13:09.365Z,31.60
2019-03-26T10:15:39.427Z,31.60
2019-03-26T10:18:10.552Z,30.90
2019-03-26T10:20:40.695Z,31.60
2019-03-26T10:23:10.876Z,31.40
2019-03-26T10:25:41.012Z,32.00
2019-03-26T10:28:11.223Z,32.70
2019-03-26T10:30:41.454Z,32.60
2019-03-26T10:33:11.589Z,33.40
2019-03-26T10:35:42.021Z,33.80
2019-03-26T10:38:12.146Z,34.60
2019-03-26T10:40:46.506Z,35.00
2019-03-26T10:43:17.009Z,34.60
2019-03-26T10:45:47.139Z,35.20
2019-03-26T10:48:17.270Z,35.40
2019-03-26T10:53:17.388Z,35.40
2019-03-26T10:55:47.576Z,35.50
2019-03-26T10:58:17.850Z,35.40
2019-03-26T11:00:48.457Z,35.00
2019-03-26T11:03:18.599Z,35.20
2019-03-26T11:05:50.536Z,34.50
2019-03-26T11:08:21.070Z,34.30
2019-03-26T11:10:54.074Z,34.40
2019-03-26T11:13:24.131Z,33.70
2019-03-26T11:15:54.261Z,30.40
2019-03-26T11:18:24.406Z,25.70
2019-03-26T11:21:02.843Z,24.90
2019-03-26T11:23:28.047Z,22.90
2019-03-26T11:25:58.178Z,22.70
2019-03-26T11:28:28.236Z,21.80
2019-03-26T11:30:58.308Z,20.60
2019-03-26T11:33:28.362Z,20.20
2019-03-26T11:35:59.958Z,20.20
2019-03-26T11:38:30.102Z,20.00
2019-03-26T11:41:01.727Z,19.90
2019-03-26T11:43:34.553Z,19.50
2019-03-26T11:46:05.156Z,19.10
2019-03-26T11:48:35.217Z,18.60
2019-03-26T11:51:08.224Z,18.40
2019-03-26T11:53:38.312Z,18.70
2019-03-26T11:56:08.398Z,18.90
2019-03-26T11:58:38.434Z,18.90
2019-03-26T12:01:08.642Z,18.80
2019-03-26T12:03:38.704Z,18.80
2019-03-26T12:06:09.071Z,18.80
2019-03-26T12:08:39.120Z,18.80
2019-03-26T12:11:09.517Z,18.60
2019-03-26T12:13:39.861Z,18.50
2019-03-26T12:16:10.268Z,18.50
2019-03-26T12:18:42.165Z,18.40
2019-03-26T12:21:12.291Z,18.60
2019-03-26T12:23:42.498Z,18.70
2019-03-26T12:26:13.804Z,18.70
2019-03-26T12:28:44.245Z,18.80
2019-03-26T12:31:14.365Z,18.80
2019-03-26T12:33:44.562Z,18.70
2019-03-26T12:36:14.762Z,18.80
2019-03-26T12:38:44.841Z,18.80
2019-03-26T12:41:15.248Z,18.80
2019-03-26T12:43:45.382Z,18.90
2019-03-26T12:46:15.912Z,18.80
2019-03-26T12:48:46.069Z,18.70
2019-03-26T12:51:16.181Z,18.70
2019-03-26T12:53:46.565Z,18.60
2019-03-26T12:56:16.624Z,18.60
2019-03-26T12:58:46.825Z,18.60
2019-03-26T13:01:16.890Z,18.60
2019-03-26T13:03:46.962Z,18.60
2019-03-26T13:06:20.214Z,18.50
2019-03-26T13:08:50.332Z,18.60
2019-03-26T13:11:23.956Z,18.40
2019-03-26T13:13:55.660Z,18.30
2019-03-26T13:16:25.809Z,18.30
2019-03-26T13:18:56.008Z,18.30
2019-03-26T13:21:30.170Z,18.30
2019-03-26T13:24:00.301Z,18.20
2019-03-26T13:26:30.362Z,18.10
2019-03-26T13:29:00.560Z,18.10
2019-03-26T13:31:32.165Z,18.10
2019-03-26T13:34:02.620Z,18.10
2019-03-26T13:36:33.146Z,17.80
2019-03-26T13:39:03.774Z,17.90
2019-03-26T13:41:34.193Z,18.00
2019-03-26T13:44:04.841Z,18.10
2019-03-26T13:46:34.844Z,18.10
2019-03-26T13:49:04.904Z,18.10
2019-03-26T13:51:37.143Z,17.80
2019-03-26T13:54:06.722Z,17.50
2019-03-26T13:56:36.845Z,17.50
2019-03-26T13:59:06.978Z,17.60
2019-03-26T14:01:37.414Z,17.60
2019-03-26T14:04:07.622Z,17.70
2019-03-26T14:06:37.676Z,17.60
2019-03-26T14:09:08.412Z,17.60
2019-03-26T14:11:38.611Z,17.40
2019-03-26T14:14:09.145Z,17.50
2019-03-26T14:16:39.203Z,17.40
2019-03-26T14:19:09.337Z,17.50
2019-03-26T14:21:41.977Z,17.60
2019-03-26T14:24:13.469Z,17.60
2019-03-26T14:26:43.785Z,17.60
2019-03-26T14:29:14.252Z,17.30
2019-03-26T14:31:44.581Z,17.30
2019-03-26T14:34:14.928Z,17.50
2019-03-26T14:36:45.052Z,17.50
2019-03-26T14:39:16.887Z,17.50
2019-03-26T14:41:47.222Z,17.60
2019-03-26T14:44:19.065Z,17.50
2019-03-26T14:46:49.188Z,17.60
2019-03-26T14:49:24.436Z,17.60
2019-03-26T14:51:54.493Z,17.50
2019-03-26T14:54:26.089Z,17.50
2019-03-26T14:56:56.549Z,17.60
2019-03-26T14:59:26.663Z,17.70
2019-03-26T15:01:56.924Z,17.60
2019-03-26T15:04:27.116Z,17.70
2019-03-26T15:06:57.619Z,17.70
2019-03-26T15:09:29.581Z,17.70
2019-03-26T15:12:04.542Z,17.80
2019-03-26T15:14:34.616Z,17.70
2019-03-26T15:17:04.669Z,17.60
2019-03-26T15:19:34.796Z,17.50
2019-03-26T15:22:04.927Z,17.60
2019-03-26T15:24:34.995Z,17.50
2019-03-26T15:27:05.450Z,17.60
2019-03-26T15:29:35.513Z,17.50
2019-03-26T15:32:05.651Z,17.60
2019-03-26T15:34:36.510Z,17.60
2019-03-26T15:37:06.961Z,17.60
2019-03-26T15:39:41.690Z,17.50
2019-03-26T15:42:13.335Z,17.50
2019-03-26T15:44:44.569Z,17.60
2019-03-26T15:47:16.158Z,17.60
2019-03-26T15:49:46.302Z,17.60
2019-03-26T15:52:16.671Z,17.50
2019-03-26T15:54:47.097Z,17.50
2019-03-26T15:57:17.624Z,17.30
2019-03-26T15:59:47.762Z,17.40
2019-03-26T16:02:17.824Z,17.30
2019-03-26T16:04:47.870Z,17.20
2019-03-26T16:07:18.010Z,17.20
2019-03-26T16:09:48.436Z,17.00
2019-03-26T16:12:18.565Z,17.00
2019-03-26T16:14:48.555Z,16.90
2019-03-26T16:17:18.694Z,16.80
2019-03-26T16:19:48.759Z,16.80
2019-03-26T16:22:18.758Z,16.80
2019-03-26T16:24:49.246Z,16.80
2019-03-26T16:27:26.597Z,16.70
2019-03-26T16:29:56.721Z,16.60
2019-03-26T16:32:27.193Z,16.60
2019-03-26T16:34:57.309Z,16.50
2019-03-26T16:37:27.385Z,16.40
2019-03-26T16:39:57.472Z,16.30
2019-03-26T16:42:28.998Z,16.30
2019-03-26T16:44:59.210Z,16.20
2019-03-26T16:47:29.646Z,16.20
2019-03-26T16:50:01.098Z,16.20
2019-03-26T16:52:32.152Z,16.00
2019-03-26T16:55:02.217Z,16.00
2019-03-26T16:57:32.332Z,15.90
2019-03-26T17:00:02.411Z,15.90
2019-03-26T17:02:32.920Z,15.80
2019-03-26T17:05:07.899Z,15.60
2019-03-26T17:07:38.375Z,15.60
2019-03-26T17:10:11.993Z,15.40
2019-03-26T17:12:41.203Z,15.30
2019-03-26T17:15:11.251Z,15.20
2019-03-26T17:17:41.379Z,15.20
2019-03-26T17:20:12.071Z,15.20
2019-03-26T17:22:46.985Z,15.20
2019-03-26T17:25:17.529Z,15.00
2019-03-26T17:27:48.043Z,15.00
2019-03-26T17:30:18.238Z,14.90
2019-03-26T17:32:48.701Z,14.80
2019-03-26T17:35:18.829Z,14.80
2019-03-26T17:37:59.081Z,14.80
2019-03-26T17:40:20.789Z,14.80
2019-03-26T17:42:51.226Z,14.70
2019-03-26T17:45:21.361Z,14.60
2019-03-26T17:47:51.429Z,14.60
2019-03-26T17:50:22.497Z,14.50
2019-03-26T17:52:52.704Z,14.50
2019-03-26T17:55:24.400Z,14.50
2019-03-26T17:57:54.510Z,14.40
2019-03-26T18:00:38.976Z,14.40
2019-03-26T18:03:09.377Z,14.30
2019-03-26T18:05:39.510Z,14.30
2019-03-26T18:08:09.597Z,14.20
2019-03-26T18:10:40.041Z,14.20
2019-03-26T18:13:11.177Z,14.20
2019-03-26T18:15:41.257Z,14.20
2019-03-26T18:18:11.366Z,14.20
2019-03-26T18:20:41.955Z,14.20
2019-03-26T18:23:13.549Z,14.10
2019-03-26T18:25:43.686Z,14.10
2019-03-26T18:28:13.885Z,14.10
2019-03-26T18:30:43.888Z,14.00
2019-03-26T18:33:14.082Z,13.70
2019-03-26T18:35:44.522Z,13.60
2019-03-26T18:38:16.114Z,13.20
2019-03-26T18:40:50.710Z,12.90
2019-03-26T18:43:20.837Z,12.70
2019-03-26T18:45:50.986Z,12.70
2019-03-26T18:48:22.646Z,12.70
2019-03-26T18:50:53.144Z,12.60
2019-03-26T18:53:23.327Z,12.60
2019-03-26T18:55:53.879Z,12.60
2019-03-26T18:58:28.542Z,12.60
2019-03-26T19:00:58.678Z,12.60
2019-03-26T19:03:28.907Z,12.50
2019-03-26T19:05:59.029Z,12.40
2019-03-26T19:08:29.171Z,12.30
2019-03-26T19:10:59.223Z,12.30
2019-03-26T19:13:29.850Z,12.30
2019-03-26T19:16:00.061Z,12.30
2019-03-26T19:18:30.288Z,12.40
2019-03-26T19:21:08.134Z,12.60
2019-03-26T19:23:39.809Z,12.70
2019-03-26T19:26:10.283Z,12.60
2019-03-26T19:28:40.905Z,12.60
2019-03-26T19:31:11.123Z,12.50
2019-03-26T19:33:44.200Z,12.50
2019-03-26T19:36:14.327Z,12.40
2019-03-26T19:38:44.458Z,12.40
2019-03-26T19:41:14.521Z,12.50
2019-03-26T19:43:53.604Z,12.50
2019-03-26T19:46:26.214Z,12.50
2019-03-26T19:48:56.594Z,12.60
2019-03-26T19:51:26.653Z,12.50
2019-03-26T19:53:56.697Z,12.40
2019-03-26T19:56:26.770Z,12.40
2019-03-26T19:58:56.970Z,12.20
2019-03-26T20:01:27.104Z,12.10
2019-03-26T20:03:57.237Z,12.20
2019-03-26T20:06:27.294Z,12.20
2019-03-26T20:08:57.754Z,12.30
2019-03-26T20:11:28.190Z,12.10
2019-03-26T20:14:03.153Z,11.70
2019-03-26T20:16:41.582Z,11.60
2019-03-26T20:19:05.924Z,11.50
2019-03-26T20:21:36.115Z,11.50
2019-03-26T20:24:06.244Z,11.40
2019-03-26T20:26:36.304Z,11.40
2019-03-26T20:29:06.427Z,11.40
2019-03-26T20:31:37.490Z,11.50
2019-03-26T20:34:07.547Z,11.50
2019-03-26T20:36:38.285Z,11.60
2019-03-26T20:39:08.875Z,11.70
2019-03-26T20:41:39.450Z,11.80
2019-03-26T20:44:09.580Z,11.90
2019-03-26T20:46:39.699Z,11.90
2019-03-26T20:49:09.769Z,11.80
2019-03-26T20:51:42.894Z,11.70
2019-03-26T20:54:13.092Z,11.70
2019-03-26T20:56:43.291Z,11.60
2019-03-26T20:59:13.486Z,11.50
2019-03-26T21:01:45.648Z,11.40
2019-03-26T21:04:15.818Z,11.20
2019-03-26T21:06:46.013Z,11.20
2019-03-26T21:09:16.144Z,11.20
2019-03-26T21:11:47.768Z,11.20
2019-03-26T21:14:17.975Z,11.30
2019-03-26T21:16:47.964Z,11.30
2019-03-26T21:19:18.509Z,11.40
2019-03-26T21:21:48.642Z,11.30
2019-03-26T21:24:18.788Z,11.30
2019-03-26T21:26:49.188Z,11.20
2019-03-26T21:29:19.253Z,11.20
2019-03-26T21:31:50.420Z,11.30
2019-03-26T21:34:30.310Z,11.80
2019-03-26T21:36:52.224Z,12.50
2019-03-26T21:39:23.817Z,13.00
2019-03-26T21:41:54.026Z,13.40
2019-03-26T21:44:25.281Z,13.70
2019-03-26T21:46:55.359Z,14.00
2019-03-26T21:49:25.699Z,14.20
2019-03-26T21:51:56.209Z,14.30
2019-03-26T21:54:26.340Z,14.50
2019-03-26T21:56:56.414Z,14.60
2019-03-26T21:59:26.399Z,14.70
2019-03-26T22:01:56.471Z,14.70
2019-03-26T22:04:26.531Z,14.70
2019-03-26T22:06:56.838Z,14.80
2019-03-26T22:09:31.679Z,14.80
2019-03-26T22:12:01.811Z,14.80
2019-03-26T22:14:31.942Z,14.80
2019-03-26T22:17:06.540Z,14.80
2019-03-26T22:19:36.596Z,14.80
2019-03-26T22:22:06.582Z,14.80
2019-03-26T22:24:37.094Z,14.80
2019-03-26T22:27:09.095Z,14.80
2019-03-26T22:29:39.040Z,14.80
2019-03-26T22:32:09.097Z,14.90
2019-03-26T22:34:39.269Z,14.90
2019-03-26T22:37:11.162Z,14.90
2019-03-26T22:39:44.124Z,14.90
2019-03-26T22:42:17.651Z,14.90
2019-03-26T22:44:47.719Z,14.90
2019-03-26T22:47:17.838Z,15.00
2019-03-26T22:49:49.022Z,15.00
2019-03-26T22:52:19.462Z,15.00
2019-03-26T22:54:49.785Z,15.00
2019-03-26T22:57:19.987Z,14.90
2019-03-26T22:59:50.114Z,15.00
2019-03-26T23:02:20.263Z,15.00
2019-03-26T23:04:50.395Z,15.00
2019-03-26T23:07:20.529Z,15.00
2019-03-26T23:09:51.123Z,15.10
2019-03-26T23:12:22.727Z,15.00
2019-03-26T23:14:54.670Z,15.00
2019-03-26T23:17:24.810Z,15.10
2019-03-26T23:19:54.998Z,15.10
2019-03-26T23:22:25.137Z,15.10
2019-03-26T23:24:55.266Z,15.10
2019-03-26T23:27:25.450Z,15.10
2019-03-26T23:29:55.798Z,15.00
2019-03-26T23:32:25.871Z,15.00
2019-03-26T23:34:56.285Z,15.00
2019-03-26T23:37:26.403Z,14.90
2019-03-26T23:39:56.533Z,14.90
2019-03-26T23:42:26.584Z,14.80
2019-03-26T23:44:58.538Z,14.80
2019-03-26T23:47:28.464Z,14.80
2019-03-26T23:49:58.524Z,14.80
2019-03-26T23:52:33.181Z,14.80
2019-03-26T23:55:03.391Z,14.80
2019-03-26T23:57:33.733Z,14.80
